Time;durP1;ratioP1;P1;durP2;ratioP2;P2;SDS_P1;SDS_P2;PMS_P1;PMS_P2;Temp;Humidity;BMP_temperature;BMP_pressure;BME280_temperature;BME280_humidity;BME280_pressure;Samples;Min_cycle;Max_cycle;Signal;HPM_P1;HPM_P2
2023/08/15 00:02:23;;;;;;;0.88;0.88;;;;;;;21.58;64.47;97110.25;4999711;28;20562;-60
2023/08/15 00:04:50;;;;;;;0.82;0.82;;;;;;;21.44;64.25;97110.59;5001538;28;20050;-59
2023/08/15 00:07:17;;;;;;;0.80;0.80;;;;;;;21.46;63.98;97102.50;4993616;28;20559;-61
2023/08/15 00:09:44;;;;;;;0.80;0.80;;;;;;;21.41;63.90;97103.03;5019436;28;20558;-61
2023/08/15 00:12:11;;;;;;;0.80;0.80;;;;;;;21.32;63.91;97103.66;5020975;28;20056;-60
2023/08/15 00:14:37;;;;;;;0.80;0.80;;;;;;;21.36;63.68;97104.34;5019429;28;20060;-59
2023/08/15 00:17:05;;;;;;;0.90;0.90;;;;;;;21.35;63.48;97116.88;5020597;28;20072;-60
2023/08/15 00:19:32;;;;;;;0.80;0.80;;;;;;;21.38;63.13;97112.38;5020533;28;20045;-61
2023/08/15 00:21:59;;;;;;;0.98;0.98;;;;;;;21.23;64.14;97106.28;5019140;28;20131;-60
2023/08/15 00:24:25;;;;;;;0.93;0.93;;;;;;;21.17;64.16;97119.31;5021028;28;20071;-61
2023/08/15 00:26:52;;;;;;;0.90;0.90;;;;;;;21.22;64.15;97115.97;5020985;28;20041;-60
2023/08/15 00:29:19;;;;;;;1.00;1.00;;;;;;;20.91;63.00;97058.34;5020894;28;20053;-61
2023/08/15 00:31:46;;;;;;;1.00;1.00;;;;;;;21.05;62.82;97072.09;5020579;28;20530;-60
2023/08/15 00:34:12;;;;;;;0.93;0.93;;;;;;;21.41;63.01;97117.91;5018919;28;20072;-60
2023/08/15 00:36:39;;;;;;;0.85;0.85;;;;;;;21.52;62.97;97129.72;5019825;28;20504;-60
2023/08/15 00:39:06;;;;;;;0.80;0.80;;;;;;;21.69;63.00;97128.50;5015734;28;20056;-61
2023/08/15 00:41:32;;;;;;;1.00;1.00;;;;;;;21.50;61.92;97092.72;5015046;28;20054;-60
2023/08/15 00:43:59;;;;;;;0.90;0.90;;;;;;;21.87;61.66;97122.44;5015718;28;20168;-62
2023/08/15 00:46:28;;;;;;;0.98;0.98;;;;;;;21.89;60.55;97132.03;4991963;28;20531;-60
2023/08/15 00:48:55;;;;;;;0.80;0.80;;;;;;;21.76;60.55;97122.72;5000637;28;20081;-60
2023/08/15 00:51:22;;;;;;;0.88;0.88;;;;;;;21.94;60.20;97128.66;5000732;28;20054;-61
2023/08/15 00:53:49;;;;;;;0.80;0.80;;;;;;;21.74;59.53;97084.84;5015453;28;20076;-60
2023/08/15 00:56:17;;;;;;;0.80;0.80;;;;;;;21.53;59.78;97074.94;5000570;28;20160;-61
2023/08/15 00:58:44;;;;;;;0.85;0.85;;;;;;;21.42;60.32;97046.22;5000437;28;20050;-61
2023/08/15 01:01:17;;;;;;;0.80;0.80;;;;;;;21.63;59.46;97059.78;5000165;28;20062;-61
2023/08/15 01:03:45;;;;;;;0.90;0.90;;;;;;;22.09;60.51;97129.91;5015148;28;20060;-60
2023/08/15 01:06:13;;;;;;;0.90;0.90;;;;;;;21.88;61.08;97090.97;5015334;28;20397;-62
2023/08/15 01:08:40;;;;;;;0.93;0.93;;;;;;;22.08;61.22;97127.53;5033804;28;20060;-60
2023/08/15 01:11:07;;;;;;;1.00;1.00;;;;;;;22.05;60.08;97117.13;5019979;28;20523;-61
2023/08/15 01:13:40;;;;;;;0.90;0.90;;;;;;;21.86;60.00;97079.31;5020023;28;20424;-60
2023/08/15 01:16:13;;;;;;;0.90;0.90;;;;;;;22.18;62.30;97121.56;5019935;28;20440;-60
2023/08/15 01:18:45;;;;;;;;;;;;;;;22.17;62.31;97114.34;5019224;28;20579;-61
2023/08/15 01:21:18;;;;;;;1.00;1.00;;;;;;;22.01;62.47;97114.38;5024332;28;20470;-60
2023/08/15 01:23:46;;;;;;;0.90;0.90;;;;;;;22.10;64.61;97119.38;5025022;28;20217;-60
2023/08/15 01:26:13;;;;;;;0.80;0.80;;;;;;;21.75;61.67;97081.63;5025892;28;20050;-60
2023/08/15 01:28:39;;;;;;;0.90;0.90;;;;;;;22.03;61.46;97109.09;5024617;28;20132;-60
2023/08/15 01:31:14;;;;;;;0.80;0.80;;;;;;;22.17;60.52;97108.72;5025509;28;20507;-61
2023/08/15 01:33:50;;;;;;;1.00;1.00;;;;;;;22.14;59.47;97092.69;5023677;28;20053;-60
2023/08/15 01:36:23;;;;;;;1.00;1.00;;;;;;;22.16;59.54;97112.75;5024501;28;20551;-60
2023/08/15 01:38:56;;;;;;;0.90;0.90;;;;;;;21.87;58.89;97044.25;5025352;28;20053;-60
2023/08/15 01:41:25;;;;;;;0.90;0.90;;;;;;;21.81;59.34;97046.03;5024988;28;20045;-60
2023/08/15 01:43:53;;;;;;;0.90;0.90;;;;;;;22.12;59.34;97106.44;5024669;28;20132;-60
2023/08/15 01:46:19;;;;;;;0.82;0.82;;;;;;;22.21;59.46;97086.81;5023243;28;20056;-61
2023/08/15 01:48:46;;;;;;;0.93;0.93;;;;;;;22.27;58.87;97107.59;5023629;28;20056;-60
2023/08/15 01:51:13;;;;;;;0.82;0.82;;;;;;;22.32;60.06;97087.31;5024189;28;20544;-61
2023/08/15 01:53:40;;;;;;;0.98;0.98;;;;;;;22.09;59.44;97053.72;5023972;28;20057;-60
2023/08/15 01:56:06;;;;;;;0.90;0.90;;;;;;;22.13;57.97;97017.72;5023904;28;20063;-61
2023/08/15 01:58:33;;;;;;;0.88;0.88;;;;;;;22.61;57.90;97078.84;5023973;28;20050;-63
2023/08/15 02:01:02;;;;;;;0.80;0.80;;;;;;;22.66;58.06;97083.13;5024131;28;20072;-60
2023/08/15 02:03:29;;;;;;;0.90;0.90;;;;;;;22.77;57.62;97080.78;5022907;28;20071;-61
2023/08/15 02:05:56;;;;;;;1.00;1.00;;;;;;;22.70;58.31;97095.13;5024395;28;20360;-60
2023/08/15 02:08:23;;;;;;;0.90;0.90;;;;;;;22.75;57.69;97086.09;5024401;28;20551;-61
2023/08/15 02:10:51;;;;;;;0.90;0.90;;;;;;;22.77;57.70;97090.06;5022750;28;20057;-62
2023/08/15 02:13:18;;;;;;;0.90;0.90;;;;;;;22.74;58.23;97084.50;5022003;28;20508;-62
2023/08/15 02:15:45;;;;;;;1.00;1.00;;;;;;;22.82;58.33;97074.59;5023411;28;20056;-60
2023/08/15 02:18:12;;;;;;;1.00;1.00;;;;;;;22.76;59.32;97070.75;5023298;28;20053;-61
2023/08/15 02:20:39;;;;;;;1.05;1.05;;;;;;;23.03;57.94;97079.59;5017953;28;20452;-61
2023/08/15 02:23:05;;;;;;;1.00;1.00;;;;;;;23.02;57.76;97094.94;5003930;28;20188;-62
2023/08/15 02:25:32;;;;;;;1.00;1.00;;;;;;;22.96;57.63;97096.75;5018391;28;20053;-61
2023/08/15 02:27:59;;;;;;;0.98;0.98;;;;;;;22.79;58.43;97081.13;5003757;28;20085;-61
2023/08/15 02:30:25;;;;;;;1.00;1.00;;;;;;;22.72;58.22;97075.69;5003254;28;20497;-60
2023/08/15 02:32:52;;;;;;;0.98;0.98;;;;;;;22.80;57.88;97099.66;5004073;28;20409;-60
2023/08/15 02:35:18;;;;;;;1.08;1.08;;;;;;;22.88;57.87;97079.22;5002716;28;20487;-61
2023/08/15 02:37:45;;;;;;;1.00;1.00;;;;;;;22.89;57.42;97082.84;5003499;28;20620;-59
2023/08/15 02:40:12;;;;;;;0.90;0.90;;;;;;;22.52;57.94;97041.22;5002419;28;20054;-61
2023/08/15 02:42:39;;;;;;;0.98;0.98;;;;;;;22.62;58.68;97049.34;5003802;28;20058;-60
2023/08/15 02:45:06;;;;;;;0.95;0.95;;;;;;;23.02;59.13;97080.81;5003182;28;20436;-63
2023/08/15 02:47:33;;;;;;;1.10;1.10;;;;;;;23.06;59.41;97075.84;5025587;28;20068;-62
2023/08/15 02:49:59;;;;;;;1.08;1.08;;;;;;;23.17;58.31;97079.13;5001805;28;20658;-60
2023/08/15 02:52:26;;;;;;;1.00;1.00;;;;;;;23.19;58.28;97071.00;5001395;28;20053;-60
2023/08/15 02:54:52;;;;;;;0.93;0.93;;;;;;;23.14;57.29;97040.47;5003184;28;20057;-61
2023/08/15 02:57:19;;;;;;;0.90;0.90;;;;;;;23.33;56.84;97060.03;5002989;28;20054;-60
2023/08/15 02:59:46;;;;;;;0.90;0.90;;;;;;;23.06;58.09;97010.84;5002715;28;20138;-61
2023/08/15 03:02:13;;;;;;;1.00;1.00;;;;;;;23.11;59.29;97047.81;5002688;28;20062;-62
2023/08/15 03:04:40;;;;;;;1.08;1.08;;;;;;;23.28;58.97;97063.44;5002224;28;20578;-61
2023/08/15 03:07:07;;;;;;;1.00;1.00;;;;;;;23.35;58.94;97068.84;5005931;28;20508;-60
2023/08/15 03:09:33;;;;;;;1.02;1.02;;;;;;;23.33;58.88;97070.56;5022336;28;20764;-60
2023/08/15 03:12:00;;;;;;;1.20;1.20;;;;;;;23.31;60.15;97062.53;5020781;28;20441;-60
2023/08/15 03:14:28;;;;;;;1.10;1.10;;;;;;;23.33;59.22;97070.56;5022185;28;20063;-61
2023/08/15 03:16:55;;;;;;;1.00;1.00;;;;;;;22.97;58.60;96979.69;5022216;28;20052;-61
2023/08/15 03:19:22;;;;;;;1.00;1.00;;;;;;;23.39;58.37;97074.41;5021988;28;20055;-62
2023/08/15 03:21:49;;;;;;;1.00;1.00;;;;;;;23.50;58.17;97066.34;5022306;28;20057;-62
2023/08/15 03:24:16;;;;;;;0.98;0.98;;;;;;;23.56;58.57;97058.88;5020615;28;20508;-60
2023/08/15 03:26:43;;;;;;;1.20;1.20;;;;;;;23.61;57.77;97061.13;5020268;28;20041;-61
2023/08/15 03:29:10;;;;;;;1.10;1.10;;;;;;;23.64;58.30;97065.88;5022317;28;20088;-61
2023/08/15 03:31:36;;;;;;;1.00;1.00;;;;;;;23.72;57.95;97064.38;5022065;28;20132;-61
2023/08/15 03:34:03;;;;;;;1.00;1.00;;;;;;;23.72;57.51;97061.56;5022314;28;20357;-63
2023/08/15 03:36:30;;;;;;;1.10;1.10;;;;;;;23.70;57.35;97070.50;5022422;28;20373;-62
2023/08/15 03:38:57;;;;;;;1.00;1.00;;;;;;;23.73;57.24;97061.09;5022084;28;20045;-61
2023/08/15 03:41:23;;;;;;;1.10;1.10;;;;;;;23.82;57.46;97063.25;5023033;28;20049;-62
2023/08/15 03:43:50;;;;;;;1.10;1.10;;;;;;;23.88;57.38;97061.41;5023057;28;20045;-61
2023/08/15 03:46:18;;;;;;;1.10;1.10;;;;;;;23.46;57.13;96986.50;5023549;28;20140;-64
2023/08/15 03:48:45;;;;;;;1.10;1.10;;;;;;;24.08;56.38;97063.94;5023385;28;20489;-61
2023/08/15 03:51:12;;;;;;;1.23;1.23;;;;;;;24.07;56.61;97059.56;5022882;28;20468;-62
2023/08/15 03:53:58;;;;;;;1.00;1.00;;;;;;;24.08;57.29;97064.75;5022080;28;20129;-63
2023/08/15 03:56:24;;;;;;;1.15;1.15;;;;;;;24.03;58.38;97062.50;5023288;28;20132;-61
2023/08/15 03:58:51;;;;;;;1.10;1.10;;;;;;;24.04;58.82;97046.31;5021912;28;20064;-61
2023/08/15 04:01:18;;;;;;;1.10;1.10;;;;;;;24.19;58.69;97053.84;5023025;28;20405;-63
2023/08/15 04:03:47;;;;;;;1.10;1.10;;;;;;;23.93;57.48;97001.41;5023132;28;20050;-63
2023/08/15 04:06:13;;;;;;;1.20;1.20;;;;;;;24.41;57.37;97059.50;5020861;28;20049;-62
2023/08/15 04:08:40;;;;;;;1.08;1.08;;;;;;;24.33;56.19;97050.47;5021957;28;20064;-61
2023/08/15 04:11:07;;;;;;;1.20;1.20;;;;;;;24.61;55.95;97063.56;5020833;28;20084;-61
2023/08/15 04:13:33;;;;;;;1.17;1.17;;;;;;;24.71;55.17;97067.28;5021781;28;20064;-61
2023/08/15 04:16:00;;;;;;;1.20;1.20;;;;;;;24.85;54.44;97061.84;5020302;28;20049;-62
2023/08/15 04:18:27;;;;;;;1.10;1.10;;;;;;;24.86;54.37;97057.78;5021779;28;20076;-61
2023/08/15 04:20:53;;;;;;;1.20;1.20;;;;;;;24.96;54.60;97062.22;5022290;28;20049;-61
2023/08/15 04:23:20;;;;;;;1.20;1.20;;;;;;;25.09;54.69;97060.09;5010850;28;20305;-63
2023/08/15 04:25:47;;;;;;;1.23;1.23;;;;;;;25.12;54.63;97070.50;5001971;28;20057;-61
2023/08/15 04:28:13;;;;;;;1.10;1.10;;;;;;;25.17;54.67;97078.41;5002174;28;20440;-61
2023/08/15 04:30:41;;;;;;;1.10;1.10;;;;;;;24.76;54.55;97001.50;5017433;28;20045;-64
2023/08/15 04:33:07;;;;;;;1.40;1.40;;;;;;;25.26;54.73;97069.94;5001736;28;20433;-62
2023/08/15 04:35:34;;;;;;;1.25;1.25;;;;;;;25.23;54.84;97070.88;5000654;28;20084;-64
2023/08/15 04:38:01;;;;;;;1.25;1.25;;;;;;;25.01;54.86;97035.31;5001998;28;20058;-61
2023/08/15 04:40:40;;;;;;;1.10;1.10;;;;;;;24.99;54.89;97049.97;5000583;28;20632;-62
2023/08/15 04:43:07;;;;;;;1.30;1.30;;;;;;;25.14;54.67;97039.66;5001657;28;20468;-62
2023/08/15 04:45:40;;;;;;;1.35;1.35;;;;;;;25.51;54.74;97074.63;5002016;28;20061;-62
2023/08/15 04:48:09;;;;;;;1.20;1.20;;;;;;;25.53;55.67;97079.84;5001647;28;20444;-61
2023/08/15 04:50:36;;;;;;;1.27;1.27;;;;;;;25.41;55.79;97075.06;5001323;28;20133;-62
2023/08/15 04:53:03;;;;;;;1.23;1.23;;;;;;;25.55;56.26;97082.97;5001414;28;20057;-61
2023/08/15 04:55:30;;;;;;;1.50;1.50;;;;;;;25.45;56.25;97042.44;5004827;28;20485;-61
2023/08/15 04:57:57;;;;;;;1.35;1.35;;;;;;;25.72;56.29;97073.72;5005203;28;20083;-62
2023/08/15 05:00:23;;;;;;;1.48;1.48;;;;;;;25.85;56.14;97079.28;5004230;28;20631;-62
2023/08/15 05:02:50;;;;;;;1.27;1.27;;;;;;;25.47;56.33;96993.75;5004396;28;20049;-61
2023/08/15 05:05:17;;;;;;;1.20;1.20;;;;;;;26.07;56.61;97077.13;5004495;28;20420;-62
2023/08/15 05:07:43;;;;;;;1.20;1.20;;;;;;;25.82;56.62;97031.97;5025441;28;20049;-62
2023/08/15 05:10:10;;;;;;;1.50;1.50;;;;;;;26.29;56.69;97126.06;5022654;28;20052;-60
2023/08/15 05:12:37;;;;;;;1.38;1.38;;;;;;;26.38;56.43;97075.72;5022985;28;20064;-59
2023/08/15 05:15:07;;;;;;;1.48;1.48;;;;;;;26.45;56.29;97081.09;5024275;28;20050;-63
2023/08/15 05:17:35;;;;;;;1.52;1.52;;;;;;;26.09;56.99;97009.28;5023075;28;20076;-61
2023/08/15 05:20:04;;;;;;;1.58;1.58;;;;;;;26.56;56.46;97057.84;5024391;28;20133;-61
2023/08/15 05:22:32;;;;;;;1.48;1.48;;;;;;;26.73;56.34;97072.56;5023733;28;20061;-62
2023/08/15 05:24:58;;;;;;;1.40;1.40;;;;;;;26.78;56.70;97074.78;5023223;28;20351;-62
2023/08/15 05:27:25;;;;;;;1.48;1.48;;;;;;;26.91;56.67;97073.31;5024207;28;20042;-62
2023/08/15 05:29:52;;;;;;;1.48;1.48;;;;;;;27.06;55.97;97068.53;5024150;28;20107;-61
2023/08/15 05:32:19;;;;;;;1.65;1.65;;;;;;;27.35;55.04;97073.66;5023716;28;20049;-61
2023/08/15 05:34:45;;;;;;;1.48;1.48;;;;;;;27.45;54.95;97078.84;5024020;28;20778;-60
2023/08/15 05:37:12;;;;;;;1.55;1.55;;;;;;;27.49;55.06;97070.91;5023764;28;20315;-60
2023/08/15 05:39:38;;;;;;;1.60;1.60;;;;;;;27.60;54.73;97068.31;5024057;28;20045;-63
2023/08/15 05:42:05;;;;;;;1.42;1.42;;;;;;;27.78;54.35;97073.91;5022550;28;20060;-60
2023/08/15 05:44:32;;;;;;;1.52;1.52;;;;;;;27.87;54.26;97071.00;5006942;28;20061;-60
2023/08/15 05:46:59;;;;;;;1.77;1.77;;;;;;;27.62;53.59;96997.47;5002674;28;20088;-60
2023/08/15 05:49:25;;;;;;;1.55;1.55;;;;;;;27.64;53.32;97020.53;5004728;28;20791;-60
2023/08/15 05:51:53;;;;;;;1.60;1.60;;;;;;;27.83;52.51;97030.53;5004347;28;20410;-60
2023/08/15 05:54:21;;;;;;;1.63;1.63;;;;;;;28.17;52.71;97065.47;5004187;28;20112;-60
2023/08/15 05:56:48;;;;;;;1.58;1.58;;;;;;;28.21;52.49;97071.75;5019459;28;20046;-61
2023/08/15 05:59:14;;;;;;;1.52;1.52;;;;;;;28.22;52.54;97064.78;5019800;28;20057;-60
2023/08/15 06:01:41;;;;;;;1.52;1.52;;;;;;;28.21;51.96;97037.56;5004374;28;20053;-61
2023/08/15 06:04:08;;;;;;;1.40;1.40;;;;;;;28.46;52.00;97059.81;5002601;28;20560;-61
2023/08/15 06:06:35;;;;;;;1.50;1.50;;;;;;;28.49;51.17;97061.72;5002663;28;20057;-61
2023/08/15 06:09:01;;;;;;;1.52;1.52;;;;;;;28.29;51.59;97024.50;5031174;28;20142;-60
2023/08/15 06:11:28;;;;;;;1.75;1.75;;;;;;;28.72;51.23;97066.59;5022235;28;20055;-60
2023/08/15 06:13:55;;;;;;;1.63;1.63;;;;;;;28.73;51.12;97059.59;5022843;28;20076;-62
2023/08/15 06:16:22;;;;;;;1.60;1.60;;;;;;;28.86;50.71;97051.53;5021949;28;20168;-60
2023/08/15 06:18:48;;;;;;;1.70;1.70;;;;;;;28.11;51.23;96926.53;5003470;28;20112;-60
2023/08/15 06:21:15;;;;;;;1.60;1.60;;;;;;;27.51;50.74;96817.91;5013264;28;20551;-65
2023/08/15 06:23:42;;;;;;;1.55;1.55;;;;;;;29.42;50.51;97051.22;5017170;28;20142;-60
2023/08/15 06:26:09;;;;;;;1.60;1.60;;;;;;;29.59;50.45;97052.28;5021545;28;20054;-57
2023/08/15 06:28:35;;;;;;;1.85;1.85;;;;;;;29.03;49.51;96941.34;5022020;28;20049;-59
2023/08/15 06:31:02;;;;;;;1.85;1.85;;;;;;;29.82;49.62;97045.63;5019956;28;20080;-60
2023/08/15 06:33:29;;;;;;;1.80;1.80;;;;;;;29.92;49.09;97052.78;5019664;28;20481;-60
2023/08/15 06:35:55;;;;;;;2.17;2.17;;;;;;;29.98;49.41;97053.63;5004859;28;20535;-61
2023/08/15 06:38:22;;;;;;;1.70;1.70;;;;;;;28.79;50.43;97060.47;5009696;28;20547;-62
2023/08/15 06:40:49;;;;;;;1.70;1.70;;;;;;;28.56;51.05;97041.38;5017322;28;20045;-67
2023/08/15 06:43:15;;;;;;;1.55;1.55;;;;;;;27.26;52.96;96923.72;5001144;28;20053;-65
2023/08/15 06:45:42;;;;;;;1.73;1.73;;;;;;;28.22;52.08;97028.50;5016925;28;20049;-59
2023/08/15 06:48:09;;;;;;;1.50;1.50;;;;;;;28.77;51.85;97058.13;5021023;28;20815;-64
2023/08/15 06:50:35;;;;;;;1.70;1.70;;;;;;;28.77;51.70;97028.81;5029877;28;20045;-71
2023/08/15 06:53:03;;;;;;;1.83;1.83;;;;;;;28.02;52.71;97059.69;5024914;28;20512;-63
2023/08/15 06:55:29;;;;;;;1.60;1.60;;;;;;;27.59;53.47;97026.91;5021416;28;20077;-59
2023/08/15 06:57:56;;;;;;;1.75;1.75;;;;;;;27.93;52.81;97063.38;5014211;28;20046;-61
2023/08/15 07:00:23;;;;;;;1.77;1.77;;;;;;;28.22;52.29;97056.25;5014112;28;20049;-61
2023/08/15 07:02:50;;;;;;;1.80;1.80;;;;;;;28.31;51.79;97050.47;5007319;28;20060;-60
2023/08/15 07:05:17;;;;;;;1.90;1.90;;;;;;;27.91;51.90;97033.84;5014942;28;20431;-62
2023/08/15 07:07:43;;;;;;;1.55;1.55;;;;;;;27.71;51.75;96916.91;5002141;28;20068;-62
2023/08/15 07:10:10;;;;;;;1.52;1.52;;;;;;;29.01;50.88;97061.66;5012757;28;20060;-63
2023/08/15 07:12:37;;;;;;;1.63;1.63;;;;;;;28.95;50.64;97057.13;5019410;28;20057;-61
2023/08/15 07:15:04;;;;;;;1.77;1.77;;;;;;;28.75;50.82;97054.19;5027714;28;20084;-61
2023/08/15 07:17:31;;;;;;;1.88;1.88;;;;;;;29.04;50.15;97060.69;5030854;28;20762;-60
2023/08/15 07:19:58;;;;;;;1.60;1.60;;;;;;;28.29;50.19;96964.66;5015938;28;20563;-62
2023/08/15 07:22:24;;;;;;;1.77;1.77;;;;;;;28.85;49.22;96978.66;5019542;28;20570;-62
2023/08/15 07:24:51;;;;;;;1.77;1.77;;;;;;;29.79;48.61;97052.31;5018157;28;20590;-63
2023/08/15 07:27:18;;;;;;;1.70;1.70;;;;;;;29.45;48.64;97061.63;5021450;28;20048;-60
2023/08/15 07:29:44;;;;;;;1.80;1.80;;;;;;;29.06;49.52;97051.63;5018594;28;20045;-59
2023/08/15 07:32:11;;;;;;;1.70;1.70;;;;;;;29.25;49.22;97024.47;5024206;28;20538;-59
2023/08/15 07:34:39;;;;;;;1.83;1.83;;;;;;;29.38;49.27;97050.63;5030078;28;20049;-62
2023/08/15 07:37:06;;;;;;;1.80;1.80;;;;;;;28.98;48.82;96973.41;5005682;28;20060;-63
2023/08/15 07:39:32;;;;;;;1.77;1.77;;;;;;;29.86;47.96;97045.41;5007189;28;20060;-64
2023/08/15 07:41:59;;;;;;;1.80;1.80;;;;;;;29.68;47.74;97035.03;5016536;28;20136;-68
2023/08/15 07:44:27;;;;;;;1.98;1.98;;;;;;;29.62;47.80;96997.03;5030143;28;20706;-62
2023/08/15 07:46:54;;;;;;;1.70;1.70;;;;;;;30.19;47.09;97018.03;5018870;28;20618;-60
2023/08/15 07:49:21;;;;;;;1.50;1.50;;;;;;;29.88;47.26;96991.41;5017927;28;20495;-64
2023/08/15 07:51:47;;;;;;;1.95;1.95;;;;;;;29.72;47.08;97041.31;5009963;28;20046;-60
2023/08/15 07:54:15;;;;;;;1.88;1.88;;;;;;;29.72;47.84;96978.47;5018214;28;20046;-61
2023/08/15 07:56:41;;;;;;;2.00;2.00;;;;;;;30.14;47.22;97020.84;5018655;28;20152;-61
2023/08/15 07:59:08;;;;;;;1.80;1.80;;;;;;;28.89;47.54;96910.78;5007517;28;20045;-63
2023/08/15 08:01:35;;;;;;;1.75;1.75;;;;;;;29.42;48.63;97034.06;5000972;28;20073;-62
2023/08/15 08:04:01;;;;;;;1.65;1.65;;;;;;;29.33;48.79;97029.28;5007978;28;20630;-60
2023/08/15 08:06:28;;;;;;;1.90;1.90;;;;;;;28.71;49.33;97013.66;5016861;28;20064;-61
2023/08/15 08:08:59;;;;;;;1.90;1.90;;;;;;;29.72;48.26;97041.31;5022128;28;20088;-60
2023/08/15 08:11:25;;;;;;;1.70;1.70;;;;;;;29.77;48.37;97032.03;5006719;28;20146;-66
2023/08/15 08:13:52;;;;;;;1.83;1.83;;;;;;;29.68;47.54;96977.91;5015700;28;20066;-60
2023/08/15 08:16:19;;;;;;;1.83;1.83;;;;;;;29.29;48.01;96945.16;5025847;28;20053;-62
2023/08/15 08:18:46;;;;;;;1.63;1.63;;;;;;;27.23;49.46;96788.09;5016675;28;20054;-61
2023/08/15 08:21:13;;;;;;;1.80;1.80;;;;;;;29.17;50.20;97024.09;5018940;28;20045;-58
2023/08/15 08:23:40;;;;;;;1.90;1.90;;;;;;;29.71;48.83;97016.91;5016898;28;20080;-64
2023/08/15 08:26:07;;;;;;;1.80;1.80;;;;;;;29.89;48.21;97025.22;5007919;28;20515;-61
2023/08/15 08:28:34;;;;;;;1.90;1.90;;;;;;;28.92;48.10;96869.88;4999254;28;20076;-68
2023/08/15 08:31:02;;;;;;;2.03;2.03;;;;;;;30.03;48.09;97021.50;4999402;28;20053;-61
2023/08/15 08:33:29;;;;;;;1.92;1.92;;;;;;;29.92;48.16;97021.34;5000340;28;20054;-68
2023/08/15 08:35:56;;;;;;;2.08;2.08;;;;;;;29.78;47.59;96964.28;5015334;28;20100;-65
2023/08/15 08:38:24;;;;;;;1.70;1.70;;;;;;;30.33;48.05;97011.50;5017741;28;20488;-65
2023/08/15 08:40:57;;;;;;;1.85;1.85;;;;;;;30.39;48.11;97017.25;5004702;28;20058;-60
2023/08/15 08:43:25;;;;;;;1.65;1.65;;;;;;;29.58;48.41;96962.16;5007171;28;20050;-68
2023/08/15 08:45:57;;;;;;;1.77;1.77;;;;;;;29.23;48.88;96967.09;5033663;28;20053;-62
2023/08/15 08:48:24;;;;;;;1.83;1.83;;;;;;;29.53;49.47;97005.69;5018389;28;20559;-66
2023/08/15 08:50:51;;;;;;;1.80;1.80;;;;;;;28.95;48.61;96911.66;5018884;28;20049;-64
2023/08/15 08:53:18;;;;;;;1.60;1.60;;;;;;;28.26;50.05;96806.88;5014605;28;20474;-65
2023/08/15 08:55:48;;;;;;;1.70;1.70;;;;;;;29.39;49.88;97026.50;5017104;28;20575;-64
2023/08/15 08:58:14;;;;;;;1.80;1.80;;;;;;;29.51;49.22;96925.47;5017543;28;20056;-64
2023/08/15 09:00:42;;;;;;;1.70;1.70;;;;;;;30.16;49.10;97007.59;5007258;28;20508;-60
2023/08/15 09:03:09;;;;;;;1.80;1.80;;;;;;;29.73;47.93;96922.94;4997747;28;20093;-63
2023/08/15 09:05:37;;;;;;;1.90;1.90;;;;;;;30.22;48.52;96971.34;5002984;28;20081;-64
2023/08/15 09:08:04;;;;;;;2.17;2.17;;;;;;;30.90;47.56;96992.31;5004117;28;20154;-64
2023/08/15 09:10:30;;;;;;;1.88;1.88;;;;;;;30.60;47.46;97008.13;5016367;28;20586;-62
2023/08/15 09:12:59;;;;;;;1.80;1.80;;;;;;;29.60;49.72;97011.00;5012561;28;20168;-61
2023/08/15 09:15:26;;;;;;;1.70;1.70;;;;;;;29.23;49.62;96944.25;5013627;28;20060;-61
2023/08/15 09:18:01;;;;;;;1.85;1.85;;;;;;;30.24;50.00;97008.78;5018051;28;20061;-60
2023/08/15 09:20:28;;;;;;;1.88;1.88;;;;;;;30.22;47.57;96928.47;5019187;28;20140;-62
2023/08/15 09:22:57;;;;;;;1.88;1.88;;;;;;;31.08;47.34;96999.00;5017761;28;20057;-63
2023/08/15 09:25:27;;;;;;;2.00;2.00;;;;;;;30.97;47.15;97007.50;5015620;28;20072;-64
2023/08/15 09:27:53;;;;;;;1.90;1.90;;;;;;;29.29;47.99;96765.34;5000326;28;20556;-62
2023/08/15 09:30:21;;;;;;;1.77;1.77;;;;;;;30.84;48.11;97000.06;5013819;28;20457;-60
2023/08/15 09:32:48;;;;;;;1.98;1.98;;;;;;;30.19;47.93;96891.50;5018905;28;20119;-64
2023/08/15 09:35:17;;;;;;;1.75;1.75;;;;;;;29.93;48.84;96971.47;5014575;28;20049;-62
2023/08/15 09:37:49;;;;;;;1.88;1.88;;;;;;;29.86;49.10;96909.06;5017660;28;20061;-64
2023/08/15 09:40:22;;;;;;;1.73;1.73;;;;;;;29.88;49.53;96945.69;5013700;28;20049;-68
2023/08/15 09:42:51;;;;;;;1.70;1.70;;;;;;;29.30;49.71;96866.81;5022074;28;20506;-63
2023/08/15 09:45:18;;;;;;;1.85;1.85;;;;;;;29.17;50.69;96943.41;5022484;28;20053;-63
2023/08/15 09:47:45;;;;;;;1.80;1.80;;;;;;;29.71;50.17;96914.09;5022799;28;20049;-64
2023/08/15 09:50:15;;;;;;;1.70;1.70;;;;;;;29.16;51.69;96998.91;5019694;28;20037;-61
2023/08/15 09:52:44;;;;;;;1.90;1.90;;;;;;;28.86;52.09;96940.31;5011097;28;20048;-62
2023/08/15 09:55:15;;;;;;;1.80;1.80;;;;;;;29.09;52.29;96945.09;5012473;28;20119;-70
2023/08/15 09:57:43;;;;;;;1.70;1.70;;;;;;;29.19;52.44;97000.78;5018309;28;20056;-67
2023/08/15 10:00:20;;;;;;;1.60;1.60;;;;;;;29.30;51.78;97003.81;5010645;28;20065;-62
2023/08/15 10:03:06;;;;;;;1.77;1.77;;;;;;;29.36;52.24;96996.91;5020842;28;20052;-64
2023/08/15 10:05:33;;;;;;;1.50;1.50;;;;;;;29.29;50.94;96956.56;5003837;28;20734;-64
2023/08/15 10:08:01;;;;;;;1.77;1.77;;;;;;;28.88;52.25;96960.56;5004302;28;20061;-64
2023/08/15 10:10:31;;;;;;;1.80;1.80;;;;;;;29.10;52.40;96993.09;5016438;28;20476;-63
2023/08/15 10:12:58;;;;;;;1.58;1.58;;;;;;;29.13;53.24;97006.38;5023586;28;20061;-62
2023/08/15 10:15:28;;;;;;;1.70;1.70;;;;;;;29.17;53.11;97003.31;5018217;28;20047;-62
2023/08/15 10:17:57;;;;;;;1.90;1.90;;;;;;;29.86;51.48;96994.75;5021504;28;20049;-59
2023/08/15 10:20:25;;;;;;;2.00;2.00;;;;;;;29.48;51.55;96952.19;5026516;28;20053;-69
2023/08/15 10:22:57;;;;;;;1.90;1.90;;;;;;;29.88;50.71;96997.91;5027394;28;20046;-61
2023/08/15 10:25:28;;;;;;;1.70;1.70;;;;;;;29.59;51.20;97003.72;5014822;28;20467;-63
2023/08/15 10:27:55;;;;;;;1.55;1.55;;;;;;;28.73;53.18;96962.63;5003908;28;20058;-65
2023/08/15 10:30:30;;;;;;;1.77;1.77;;;;;;;29.47;52.31;96991.34;5016299;28;20041;-62
2023/08/15 10:33:11;;;;;;;1.80;1.80;;;;;;;29.45;52.44;96998.81;5018384;28;20056;-59
2023/08/15 10:35:51;;;;;;;1.63;1.63;;;;;;;28.22;51.33;96777.00;5023515;28;20057;-59
2023/08/15 10:38:22;;;;;;;1.88;1.88;;;;;;;29.50;51.74;96995.28;5009542;28;20060;-61
2023/08/15 10:40:51;;;;;;;1.90;1.90;;;;;;;29.36;52.09;97002.59;5020938;28;20060;-60
2023/08/15 10:43:23;;;;;;;1.90;1.90;;;;;;;29.44;52.53;97003.78;5021871;28;20168;-62
2023/08/15 10:45:52;;;;;;;1.98;1.98;;;;;;;30.01;51.45;97001.19;5011786;28;20064;-66
2023/08/15 10:48:49;;;;;;;1.85;1.85;;;;;;;29.95;50.91;96994.63;5003519;28;20513;-61
2023/08/15 10:51:20;;;;;;;1.77;1.77;;;;;;;28.99;51.49;96915.09;5003690;28;20056;-61
2023/08/15 10:53:51;;;;;;;2.00;2.00;;;;;;;29.67;50.82;96912.72;5018968;28;20061;-61
2023/08/15 10:56:20;;;;;;;1.65;1.65;;;;;;;30.42;49.61;96997.03;5011335;28;20057;-60
2023/08/15 10:58:48;;;;;;;1.60;1.60;;;;;;;29.89;49.64;96930.94;5013457;28;20049;-60
2023/08/15 11:01:22;;;;;;;1.90;1.90;;;;;;;30.46;49.83;96991.88;5011840;28;20060;-65
2023/08/15 11:03:52;;;;;;;1.77;1.77;;;;;;;30.93;48.53;96991.34;5003751;28;20472;-65
2023/08/15 11:06:20;;;;;;;1.77;1.77;;;;;;;30.42;49.54;96987.66;5010636;28;20145;-62
2023/08/15 11:08:56;;;;;;;1.85;1.85;;;;;;;29.93;49.80;96971.47;5013593;28;20056;-62
2023/08/15 11:11:23;;;;;;;1.90;1.90;;;;;;;29.75;50.22;96960.34;5012340;28;20065;-64
2023/08/15 11:13:52;;;;;;;1.85;1.85;;;;;;;29.16;50.73;96864.81;5005300;28;20046;-62
2023/08/15 11:16:21;;;;;;;1.80;1.80;;;;;;;29.29;50.83;96917.38;5023151;28;20103;-67
2023/08/15 11:18:49;;;;;;;1.98;1.98;;;;;;;29.81;50.47;96972.66;5020921;28;20278;-65
2023/08/15 11:21:17;;;;;;;1.88;1.88;;;;;;;29.98;50.50;96985.06;5022071;28;20698;-68
2023/08/15 11:23:45;;;;;;;1.90;1.90;;;;;;;27.27;51.37;96640.78;5022077;28;20045;-65
2023/08/15 11:26:15;;;;;;;2.00;2.00;;;;;;;29.20;51.47;96965.25;5022772;28;20057;-63
2023/08/15 11:28:42;;;;;;;1.83;1.83;;;;;;;28.88;52.06;96946.31;5022069;28;20052;-65
2023/08/15 11:31:15;;;;;;;1.92;1.92;;;;;;;29.28;52.26;96984.31;5020570;28;20132;-61
2023/08/15 11:33:51;;;;;;;1.85;1.85;;;;;;;28.81;51.91;96898.22;5021016;28;20132;-61
2023/08/15 11:36:20;;;;;;;1.70;1.70;;;;;;;28.79;51.98;96906.47;5022109;28;20414;-65
2023/08/15 11:38:47;;;;;;;1.85;1.85;;;;;;;28.67;52.08;96870.53;5020494;28;20060;-64